createdAt,value
2022-09-01T00:18:09.073Z,13.56
2022-09-01T00:38:11.710Z,13.50
2022-09-01T00:58:19.933Z,13.75
2022-09-01T01:18:23.790Z,13.53
2022-09-01T01:38:26.434Z,13.21
2022-09-01T01:58:30.378Z,13.04
2022-09-01T02:18:35.915Z,13.02
2022-09-01T02:38:38.987Z,13.10
2022-09-01T02:58:47.399Z,13.08
2022-09-01T03:18:50.756Z,13.02
2022-09-01T03:38:53.211Z,13.10
2022-09-01T03:58:55.891Z,12.93
2022-09-01T04:19:01.550Z,12.99
2022-09-01T04:39:11.802Z,13.20
2022-09-01T04:59:14.638Z,13.40
2022-09-01T05:19:18.746Z,13.81
2022-09-01T05:39:22.119Z,14.45
2022-09-01T05:59:26.112Z,14.53
2022-09-01T06:19:33.574Z,15.25
2022-09-01T06:39:39.183Z,16.00
2022-09-01T06:59:41.887Z,16.26
2022-09-01T07:19:49.543Z,16.47
2022-09-01T07:39:52.433Z,16.89
2022-09-01T07:59:57.546Z,17.44
2022-09-01T08:20:00.204Z,17.01
2022-09-01T08:40:04.061Z,17.28
2022-09-01T09:00:06.811Z,18.10
2022-09-01T09:20:12.270Z,18.70
2022-09-01T09:40:18.406Z,18.66
2022-09-01T10:00:23.886Z,19.11
2022-09-01T10:20:27.462Z,19.70
2022-09-01T10:40:31.399Z,20.09
2022-09-01T11:00:36.827Z,20.12
2022-09-01T11:20:39.771Z,20.70
2022-09-01T11:40:42.480Z,20.32
2022-09-01T12:00:45.135Z,20.58
2022-09-01T12:40:50.671Z,20.24
2022-09-01T13:00:53.394Z,19.29
2022-09-01T13:20:56.235Z,19.98
2022-09-01T13:40:58.882Z,20.23
2022-09-01T14:01:01.465Z,19.90
2022-09-01T14:21:04.050Z,19.89
2022-09-01T14:41:06.486Z,19.64
2022-09-01T15:01:32.801Z,20.19
2022-09-01T15:21:35.058Z,19.63
2022-09-01T15:41:37.754Z,18.67
2022-09-01T16:01:40.521Z,18.51
2022-09-01T16:21:43.210Z,18.24
2022-09-01T16:41:45.959Z,18.16
2022-09-01T17:01:48.907Z,17.76
2022-09-01T17:21:55.078Z,17.13
2022-09-01T17:41:57.640Z,17.06
2022-09-01T18:02:00.462Z,16.73
2022-09-01T18:22:03.616Z,16.39
2022-09-01T18:42:06.294Z,16.21
2022-09-01T19:02:08.886Z,15.98
2022-09-01T19:22:12.193Z,15.19
2022-09-01T19:42:14.645Z,14.66
2022-09-01T20:02:18.331Z,14.20
2022-09-01T20:22:20.786Z,13.63
2022-09-01T20:42:23.298Z,13.25
2022-09-01T21:02:25.954Z,13.09
2022-09-01T21:22:28.459Z,13.14
2022-09-01T21:42:30.998Z,12.92
2022-09-01T22:02:35.125Z,13.04
2022-09-01T22:22:37.686Z,12.82
2022-09-01T22:42:40.150Z,12.44
2022-09-01T23:02:42.899Z,12.30
2022-09-01T23:22:45.582Z,12.11
2022-09-01T23:42:48.051Z,12.18
